createdAt,value
2022-12-31T00:00:28.714Z,27.91
2022-12-31T00:01:28.672Z,29.11
2022-12-31T00:02:28.792Z,30.89
2022-12-31T00:03:28.778Z,30.19
2022-12-31T00:55:34.389Z,25.00
2022-12-31T00:56:35.352Z,25.00
2022-12-31T00:57:35.363Z,25.00
2022-12-31T00:58:35.345Z,25.00
2022-12-31T00:59:35.340Z,25.00
2022-12-31T01:00:35.323Z,25.00
2022-12-31T01:01:35.442Z,3.54
2022-12-31T01:02:35.633Z,0.00
2022-12-31T01:03:35.340Z,0.00
2022-12-31T01:04:35.284Z,1.78
2022-12-31T01:05:35.282Z,10.72
2022-12-31T01:06:35.294Z,26.52
2022-12-31T01:07:35.257Z,27.41
2022-12-31T01:08:35.250Z,27.13
2022-12-31T01:09:35.249Z,25.02
2022-12-31T01:10:35.262Z,26.14
2022-12-31T01:11:35.247Z,27.45
2022-12-31T01:12:35.211Z,25.20
2022-12-31T01:13:35.215Z,25.00
2022-12-31T01:14:35.199Z,27.68
2022-12-31T01:15:35.254Z,26.08
2022-12-31T01:16:35.174Z,26.69
2022-12-31T01:17:35.162Z,26.44
2022-12-31T01:18:35.153Z,27.64
2022-12-31T01:19:35.147Z,25.00
2022-12-31T01:20:35.186Z,27.77
2022-12-31T01:21:35.145Z,27.35
2022-12-31T01:22:35.137Z,25.00
2022-12-31T01:23:35.109Z,28.51
2022-12-31T01:24:35.099Z,25.00
2022-12-31T01:25:35.106Z,28.34
2022-12-31T01:26:35.088Z,25.00
2022-12-31T01:27:35.101Z,25.89
2022-12-31T01:28:35.070Z,29.02
2022-12-31T01:29:35.061Z,27.19
2022-12-31T01:30:35.177Z,26.26
2022-12-31T01:31:35.045Z,26.99
2022-12-31T01:32:35.027Z,27.65
2022-12-31T01:33:35.023Z,29.98
2022-12-31T01:35:35.024Z,27.90
2022-12-31T01:36:35.004Z,29.05
2022-12-31T01:37:34.979Z,27.43
2022-12-31T01:38:34.984Z,29.93
2022-12-31T01:39:34.963Z,28.45
2022-12-31T01:40:34.953Z,26.58
2022-12-31T01:41:34.946Z,26.43
2022-12-31T01:42:34.942Z,25.41
2022-12-31T01:43:34.960Z,28.32
2022-12-31T01:44:34.919Z,28.52
2022-12-31T01:45:34.906Z,31.33
2022-12-31T01:46:34.949Z,27.14
2022-12-31T01:47:34.898Z,29.35
2022-12-31T01:48:34.881Z,29.29
2022-12-31T01:49:34.876Z,29.96
2022-12-31T01:50:34.872Z,25.30
2022-12-31T01:51:34.862Z,27.82
2022-12-31T01:52:34.850Z,29.63
2022-12-31T01:53:34.836Z,31.92
2022-12-31T01:54:34.824Z,31.64
2022-12-31T01:55:34.815Z,26.00
2022-12-31T01:56:34.816Z,27.73
2022-12-31T01:57:34.799Z,27.34
2022-12-31T01:58:34.806Z,28.36
2022-12-31T01:59:34.809Z,28.52
2022-12-31T02:00:34.774Z,27.24
2022-12-31T02:01:34.873Z,28.27
2022-12-31T02:02:34.857Z,28.21
2022-12-31T02:03:34.750Z,27.11
2022-12-31T02:04:34.739Z,25.77
2022-12-31T02:05:34.728Z,27.33
2022-12-31T02:06:34.723Z,27.38
2022-12-31T02:07:34.741Z,27.87
2022-12-31T02:08:41.642Z,32.07
2022-12-31T02:09:34.694Z,32.21
2022-12-31T02:10:34.687Z,32.79
2022-12-31T02:11:34.681Z,32.63
2022-12-31T02:12:34.666Z,32.55
2022-12-31T02:13:34.666Z,32.87
2022-12-31T02:14:34.643Z,32.74
2022-12-31T02:15:34.842Z,29.65
2022-12-31T02:16:34.636Z,35.00
2022-12-31T02:17:34.648Z,32.64
2022-12-31T02:18:34.608Z,28.45
2022-12-31T02:19:34.601Z,29.67
2022-12-31T02:20:34.604Z,32.29
2022-12-31T02:21:34.583Z,31.08
2022-12-31T02:22:34.578Z,27.40
2022-12-31T02:23:34.566Z,27.20
2022-12-31T02:24:34.551Z,28.22
2022-12-31T02:25:34.544Z,28.18
2022-12-31T02:26:34.546Z,28.34
2022-12-31T02:27:34.531Z,31.53
2022-12-31T02:28:34.525Z,31.90
2022-12-31T02:29:34.505Z,30.53
2022-12-31T02:30:34.509Z,31.72
2022-12-31T02:31:34.572Z,33.19
2022-12-31T02:32:34.488Z,33.31
2022-12-31T02:33:34.475Z,29.89
2022-12-31T02:34:34.466Z,30.95
2022-12-31T02:35:34.458Z,29.78
2022-12-31T02:36:34.448Z,27.29
2022-12-31T02:37:34.479Z,30.20
2022-12-31T02:38:34.425Z,31.20
2022-12-31T02:39:34.417Z,32.28
2022-12-31T02:40:34.428Z,31.25
2022-12-31T02:41:34.399Z,30.09
2022-12-31T02:42:34.450Z,30.35
2022-12-31T02:43:34.387Z,29.92
2022-12-31T02:44:34.416Z,30.88
2022-12-31T02:45:34.369Z,31.05
2022-12-31T02:46:34.376Z,32.39
2022-12-31T02:47:34.373Z,30.89
2022-12-31T02:48:34.348Z,31.26
2022-12-31T02:49:34.327Z,29.81
2022-12-31T02:50:34.331Z,36.95
2022-12-31T02:51:34.307Z,34.04
2022-12-31T02:52:34.299Z,28.74
2022-12-31T02:53:34.293Z,32.35
2022-12-31T02:54:34.280Z,32.30
2022-12-31T02:55:34.281Z,31.32
2022-12-31T02:56:34.263Z,29.99
2022-12-31T02:57:34.259Z,29.14
2022-12-31T02:58:34.247Z,29.99
2022-12-31T02:59:34.237Z,32.44
2022-12-31T03:00:34.284Z,32.33
2022-12-31T03:01:34.344Z,35.03
2022-12-31T03:02:34.283Z,31.09
2022-12-31T03:03:34.226Z,32.91
2022-12-31T03:04:34.304Z,29.78
2022-12-31T03:05:34.189Z,31.37
2022-12-31T03:06:34.182Z,31.81
2022-12-31T03:07:34.193Z,31.36
2022-12-31T03:08:34.155Z,29.42
2022-12-31T03:09:34.145Z,30.68
2022-12-31T03:10:34.143Z,31.94
2022-12-31T03:11:34.134Z,33.31
2022-12-31T03:12:34.128Z,27.83
2022-12-31T03:13:34.120Z,35.09
2022-12-31T03:14:34.111Z,33.56
2022-12-31T03:15:34.094Z,29.79
2022-12-31T03:16:34.120Z,33.95
2022-12-31T03:17:34.079Z,31.61
2022-12-31T03:18:34.070Z,31.91
2022-12-31T03:19:34.123Z,32.06
2022-12-31T03:20:34.047Z,33.94
2022-12-31T03:21:34.040Z,32.57
2022-12-31T03:22:34.029Z,34.99
2022-12-31T03:23:34.019Z,26.98
2022-12-31T03:24:34.014Z,31.53
2022-12-31T03:25:34.015Z,28.25
2022-12-31T03:26:34.001Z,32.81
2022-12-31T03:27:33.983Z,32.12
2022-12-31T03:28:33.980Z,31.13
2022-12-31T03:29:33.968Z,29.29
2022-12-31T03:30:33.979Z,31.67
2022-12-31T03:31:33.977Z,30.66
2022-12-31T03:32:33.948Z,34.42
2022-12-31T03:33:33.931Z,28.27
2022-12-31T03:34:33.917Z,29.66
2022-12-31T03:35:33.997Z,29.28
2022-12-31T03:36:33.898Z,31.64
2022-12-31T03:37:33.898Z,30.01
2022-12-31T03:38:33.881Z,31.71
2022-12-31T03:39:33.876Z,33.27
2022-12-31T03:40:33.866Z,35.97
2022-12-31T03:41:33.861Z,30.08
2022-12-31T03:42:33.847Z,29.09
2022-12-31T03:43:33.844Z,28.36
2022-12-31T03:44:33.834Z,31.94
2022-12-31T03:45:33.835Z,32.03
2022-12-31T03:46:33.813Z,31.60
2022-12-31T03:47:33.798Z,30.38
2022-12-31T03:48:33.798Z,32.44
2022-12-31T03:49:33.778Z,30.18
2022-12-31T03:50:33.777Z,32.76
2022-12-31T03:51:33.789Z,29.11
2022-12-31T03:52:33.751Z,32.04
2022-12-31T03:53:33.752Z,30.62
2022-12-31T03:54:33.740Z,31.38
2022-12-31T03:55:33.727Z,31.22
2022-12-31T03:56:33.717Z,29.97
2022-12-31T03:57:33.707Z,27.98
2022-12-31T03:58:33.696Z,29.05
2022-12-31T03:59:33.690Z,32.92
2022-12-31T04:00:33.698Z,32.16
2022-12-31T04:01:33.893Z,31.13
2022-12-31T04:02:33.789Z,29.11
2022-12-31T04:03:33.658Z,30.06
2022-12-31T04:04:33.657Z,32.41
2022-12-31T04:05:33.655Z,30.92
2022-12-31T04:06:33.622Z,29.77
2022-12-31T04:07:33.650Z,30.55
2022-12-31T04:08:33.610Z,31.83
2022-12-31T04:09:33.598Z,30.78
2022-12-31T04:16:33.575Z,31.55
2022-12-31T04:17:33.520Z,30.28
2022-12-31T04:18:33.516Z,31.06
2022-12-31T04:19:33.500Z,30.42
2022-12-31T04:20:33.490Z,34.03
2022-12-31T04:21:35.257Z,32.53
2022-12-31T04:22:33.476Z,32.69
2022-12-31T04:23:33.489Z,31.83
2022-12-31T18:24:26.252Z,29.61
2022-12-31T18:26:25.618Z,30.86
2022-12-31T19:17:25.143Z,31.72
2022-12-31T20:37:24.401Z,26.84
2022-12-31T20:38:24.389Z,28.43
2022-12-31T20:39:24.405Z,31.05
2022-12-31T20:40:24.375Z,26.61
2022-12-31T20:41:24.361Z,26.54
2022-12-31T20:42:24.346Z,28.70
2022-12-31T20:43:24.344Z,27.59
2022-12-31T20:44:24.331Z,27.36
2022-12-31T20:45:24.323Z,29.36
2022-12-31T20:46:24.362Z,26.71
2022-12-31T20:47:24.304Z,26.80
2022-12-31T20:48:24.292Z,27.14
2022-12-31T20:49:52.099Z,26.33
2022-12-31T20:50:24.281Z,26.76
2022-12-31T20:51:24.299Z,27.30
2022-12-31T20:52:24.269Z,27.32
2022-12-31T20:53:24.251Z,28.75
2022-12-31T20:54:24.233Z,27.64
2022-12-31T20:55:24.252Z,28.48
2022-12-31T20:56:24.216Z,29.72
2022-12-31T20:57:26.604Z,29.82
2022-12-31T20:58:24.205Z,30.12
2022-12-31T20:59:24.189Z,30.82
2022-12-31T21:00:24.186Z,29.58
2022-12-31T21:01:24.273Z,27.69
2022-12-31T21:02:39.296Z,32.76
2022-12-31T21:04:03.238Z,30.20
2022-12-31T21:04:24.326Z,30.29
2022-12-31T21:05:24.460Z,31.63
2022-12-31T21:06:24.127Z,30.33
2022-12-31T21:07:24.116Z,30.51
2022-12-31T21:08:27.160Z,30.02
2022-12-31T21:09:24.100Z,30.14
2022-12-31T21:10:24.116Z,30.80
2022-12-31T21:11:24.107Z,30.11
2022-12-31T21:12:24.080Z,30.59
2022-12-31T21:13:24.066Z,29.19
2022-12-31T21:14:24.061Z,26.44
2022-12-31T21:15:24.090Z,30.70
2022-12-31T21:16:24.035Z,28.73
2022-12-31T21:17:24.021Z,29.25
2022-12-31T21:18:24.019Z,32.91
2022-12-31T21:19:24.011Z,28.37
2022-12-31T21:20:23.998Z,29.92
2022-12-31T21:21:23.986Z,28.67
2022-12-31T21:22:23.983Z,27.65
2022-12-31T21:23:23.971Z,28.69
2022-12-31T21:24:24.446Z,28.87
2022-12-31T21:25:23.953Z,30.14
2022-12-31T21:26:23.935Z,28.76
2022-12-31T21:27:23.975Z,30.09
2022-12-31T21:28:23.918Z,29.54
2022-12-31T21:29:23.909Z,29.27
2022-12-31T21:30:23.930Z,27.62
2022-12-31T21:31:23.952Z,28.92
2022-12-31T21:32:23.880Z,28.05
2022-12-31T21:33:23.875Z,28.66
2022-12-31T21:34:23.873Z,27.76
2022-12-31T21:35:54.250Z,32.27
2022-12-31T21:36:23.852Z,32.57
2022-12-31T21:37:23.841Z,32.61
2022-12-31T21:38:23.863Z,31.56
2022-12-31T21:39:23.812Z,30.45
2022-12-31T21:40:23.825Z,30.37
2022-12-31T21:41:24.266Z,31.97
2022-12-31T21:42:23.801Z,33.33
2022-12-31T21:43:23.808Z,28.60
2022-12-31T21:44:23.770Z,29.46
2022-12-31T21:45:23.761Z,29.37
2022-12-31T21:46:23.846Z,30.32
2022-12-31T21:47:45.646Z,31.58
2022-12-31T21:48:23.751Z,31.86
2022-12-31T21:49:23.726Z,32.01
2022-12-31T21:51:23.708Z,29.93
2022-12-31T21:52:23.700Z,32.42
2022-12-31T21:53:27.945Z,30.05
2022-12-31T21:54:23.683Z,30.43
2022-12-31T21:55:23.674Z,30.70
2022-12-31T21:56:23.680Z,31.33
2022-12-31T21:57:23.653Z,30.17
2022-12-31T21:58:26.772Z,28.45
2022-12-31T21:59:23.657Z,30.38
2022-12-31T22:00:41.866Z,30.31
2022-12-31T22:01:23.748Z,30.39
2022-12-31T22:02:23.719Z,30.88
2022-12-31T22:03:23.636Z,31.19
2022-12-31T22:05:00.220Z,30.63
2022-12-31T22:05:25.386Z,30.52
2022-12-31T22:06:23.581Z,30.46
2022-12-31T22:07:23.566Z,31.09
2022-12-31T22:08:23.547Z,30.77
2022-12-31T22:09:23.543Z,29.60
2022-12-31T22:10:23.590Z,28.83
2022-12-31T22:11:23.541Z,31.88
2022-12-31T22:12:23.586Z,32.01
2022-12-31T22:13:23.506Z,30.66
2022-12-31T22:14:23.499Z,30.58
2022-12-31T22:15:23.508Z,30.69
2022-12-31T22:16:23.560Z,28.43
2022-12-31T22:17:23.471Z,28.85
2022-12-31T22:18:23.458Z,29.49
2022-12-31T22:19:23.448Z,25.03
2022-12-31T22:20:27.849Z,27.27
2022-12-31T22:21:23.598Z,27.68
2022-12-31T22:22:23.536Z,28.07
2022-12-31T22:23:23.530Z,27.94
2022-12-31T22:24:23.527Z,29.15
2022-12-31T22:25:23.509Z,32.99
2022-12-31T22:26:23.557Z,30.59
2022-12-31T22:27:28.900Z,27.52
2022-12-31T22:28:39.989Z,27.80
2022-12-31T22:29:23.479Z,28.09
2022-12-31T22:30:23.469Z,28.81
2022-12-31T22:31:23.543Z,30.10
2022-12-31T22:32:23.451Z,31.96
2022-12-31T22:33:23.625Z,33.79
2022-12-31T22:34:23.430Z,32.55
2022-12-31T22:35:23.421Z,33.10
2022-12-31T22:36:23.419Z,30.05
2022-12-31T22:37:55.086Z,29.86
2022-12-31T22:38:23.397Z,30.21
2022-12-31T22:39:43.525Z,31.22
2022-12-31T22:40:23.389Z,30.31
2022-12-31T22:41:23.368Z,30.76
2022-12-31T22:42:23.369Z,30.67
2022-12-31T22:43:23.348Z,29.79
2022-12-31T22:44:23.342Z,32.66
2022-12-31T22:45:23.330Z,30.49
2022-12-31T22:46:23.353Z,31.28
2022-12-31T22:47:23.336Z,30.40
2022-12-31T22:48:23.339Z,30.13
2022-12-31T22:49:23.299Z,32.05
2022-12-31T22:50:23.285Z,30.59
2022-12-31T22:51:23.280Z,28.26
2022-12-31T22:52:23.263Z,28.94
2022-12-31T22:53:23.269Z,29.38
2022-12-31T22:54:23.248Z,27.80
2022-12-31T22:55:23.233Z,26.47
2022-12-31T22:56:23.232Z,30.23
2022-12-31T22:57:23.218Z,32.06
2022-12-31T22:58:23.209Z,28.54
2022-12-31T22:59:23.200Z,27.29
2022-12-31T23:00:23.185Z,27.89
2022-12-31T23:01:23.262Z,30.25
2022-12-31T23:02:23.181Z,30.77
2022-12-31T23:03:23.216Z,29.49
2022-12-31T23:04:23.266Z,28.19
2022-12-31T23:05:23.151Z,32.43
2022-12-31T23:06:23.130Z,30.18
2022-12-31T23:07:23.161Z,30.44
2022-12-31T23:08:24.178Z,29.74
2022-12-31T23:09:23.113Z,30.48
2022-12-31T23:10:23.135Z,28.43
2022-12-31T23:11:23.088Z,29.30
2022-12-31T23:12:23.077Z,27.95
2022-12-31T23:13:23.068Z,29.52
2022-12-31T23:14:23.061Z,28.57
2022-12-31T23:15:23.050Z,28.04
2022-12-31T23:16:23.115Z,27.58
2022-12-31T23:17:31.249Z,30.70
2022-12-31T23:18:23.021Z,30.89
2022-12-31T23:19:23.079Z,31.22
2022-12-31T23:20:23.004Z,30.35
2022-12-31T23:21:22.993Z,31.90
2022-12-31T23:22:22.983Z,28.44
2022-12-31T23:23:22.982Z,29.87
2022-12-31T23:24:26.561Z,28.69
2022-12-31T23:25:22.965Z,29.01
2022-12-31T23:26:22.950Z,29.07
2022-12-31T23:27:22.943Z,29.24
2022-12-31T23:28:22.936Z,29.22
2022-12-31T23:29:22.922Z,29.92
2022-12-31T23:30:22.906Z,29.96
2022-12-31T23:31:22.950Z,30.76
2022-12-31T23:32:22.896Z,28.89
2022-12-31T23:33:22.879Z,28.12
2022-12-31T23:34:22.873Z,30.05
2022-12-31T23:35:23.284Z,31.74
2022-12-31T23:36:22.849Z,30.46
2022-12-31T23:37:22.849Z,27.16
2022-12-31T23:38:22.832Z,33.28
2022-12-31T23:39:22.851Z,27.13
2022-12-31T23:40:22.817Z,32.29
2022-12-31T23:41:22.813Z,29.19
2022-12-31T23:42:22.806Z,27.72
2022-12-31T23:43:22.815Z,28.67
2022-12-31T23:44:22.776Z,28.34
2022-12-31T23:45:23.649Z,30.43
2022-12-31T23:46:22.781Z,30.53
2022-12-31T23:47:22.748Z,28.00
2022-12-31T23:48:22.764Z,28.12
2022-12-31T23:49:22.751Z,29.68
2022-12-31T23:50:22.725Z,30.06
2022-12-31T23:51:22.740Z,33.27
2022-12-31T23:52:22.700Z,30.63
2022-12-31T23:53:22.727Z,29.48
2022-12-31T23:54:22.687Z,29.93
2022-12-31T23:55:22.674Z,31.01
2022-12-31T23:56:23.953Z,29.08
2022-12-31T23:57:22.759Z,29.22
2022-12-31T23:58:22.752Z,29.26
2022-12-31T23:59:22.740Z,29.91
